Time;durP1;ratioP1;P1;durP2;ratioP2;P2;SDS_P1;SDS_P2;PMS_P1;PMS_P2;Temp;Humidity;BMP_temperature;BMP_pressure;BME280_temperature;BME280_humidity;BME280_pressure;Samples;Min_cycle;Max_cycle;Signal;HPM_P1;HPM_P2
2022/04/04 00:01:19;;;;;;;7.43;6.20;;;;;;;-148.33;100.00;56587.81;5068817;28;20027;-59
2022/04/04 00:03:45;;;;;;;6.57;5.93;;;;;;;-148.33;100.00;56587.81;5069466;28;20449;-59
2022/04/04 00:06:10;;;;;;;10.33;6.77;;;;;;;-148.33;100.00;56587.81;5069606;28;20028;-60
2022/04/04 00:08:35;;;;;;;8.53;6.80;;;;;;;-148.33;100.00;56587.81;5069208;28;20484;-57
2022/04/04 00:11:01;;;;;;;7.90;6.00;;;;;;;-148.33;100.00;56587.81;5054473;28;20096;-59
2022/04/04 00:13:27;;;;;;;7.93;6.93;;;;;;;-148.33;100.00;56587.81;5049822;28;20113;-60
2022/04/04 00:15:53;;;;;;;8.93;6.63;;;;;;;-148.33;100.00;56587.81;5049535;28;20028;-58
2022/04/04 00:18:18;;;;;;;9.57;6.43;;;;;;;-148.33;100.00;56587.81;5049728;28;20472;-59
2022/04/04 00:20:44;;;;;;;8.83;6.33;;;;;;;-148.33;100.00;56587.81;5049997;28;20089;-59
2022/04/04 00:23:12;;;;;;;7.63;6.10;;;;;;;-148.33;100.00;56587.81;5050011;28;20033;-59
2022/04/04 00:25:45;;;;;;;6.97;6.37;;;;;;;-148.33;100.00;56587.81;5050201;28;20033;-58
2022/04/04 00:28:11;;;;;;;8.57;6.47;;;;;;;-148.33;100.00;56587.81;5049530;28;20037;-57
2022/04/04 00:30:37;;;;;;;8.27;6.20;;;;;;;-148.33;100.00;56587.81;5049699;28;20033;-59
2022/04/04 00:33:03;;;;;;;7.40;5.67;;;;;;;-148.33;100.00;56587.81;5049848;28;20033;-60
2022/04/04 00:35:30;;;;;;;8.57;6.27;;;;;;;-148.33;100.00;56587.81;5049866;28;20059;-57
2022/04/04 00:37:55;;;;;;;8.90;6.67;;;;;;;-148.33;100.00;56587.81;5049635;28;20583;-57
2022/04/04 00:40:21;;;;;;;8.10;6.20;;;;;;;-148.33;100.00;56587.81;5049849;28;20024;-58
2022/04/04 00:42:46;;;;;;;8.30;6.33;;;;;;;-148.33;100.00;56587.81;5049354;28;20079;-59
2022/04/04 00:45:11;;;;;;;9.07;7.13;;;;;;;-148.33;100.00;56587.81;5049308;28;20033;-59
2022/04/04 00:47:36;;;;;;;10.77;6.40;;;;;;;-148.33;100.00;56587.81;5049570;28;20025;-58
2022/04/04 00:50:03;;;;;;;7.23;6.43;;;;;;;-148.33;100.00;56587.81;5049266;28;20612;-57
2022/04/04 00:52:29;;;;;;;8.77;6.77;;;;;;;-148.33;100.00;56587.81;5049530;28;20074;-60
2022/04/04 00:54:55;;;;;;;7.87;6.90;;;;;;;-148.33;100.00;56587.81;5049707;28;20020;-59
2022/04/04 00:57:21;;;;;;;7.97;6.33;;;;;;;-148.33;100.00;56587.81;5049902;28;20032;-59
2022/04/04 00:59:47;;;;;;;8.67;7.83;;;;;;;-148.33;100.00;56587.81;5049591;28;20024;-59
2022/04/04 01:02:12;;;;;;;7.97;6.47;;;;;;;-148.33;100.00;56587.81;5048535;28;20075;-58
2022/04/04 01:04:38;;;;;;;7.63;6.90;;;;;;;-148.33;100.00;56587.81;5048966;28;20477;-59
2022/04/04 01:07:03;;;;;;;7.67;6.90;;;;;;;-148.33;100.00;56587.81;5049138;28;20392;-59
2022/04/04 01:09:30;;;;;;;7.73;6.00;;;;;;;-148.33;100.00;56587.81;5048704;28;20107;-59
2022/04/04 01:12:13;;;;;;;10.33;6.97;;;;;;;-148.33;100.00;56587.81;5049240;28;20131;-58
2022/04/04 01:14:46;;;;;;;9.23;6.97;;;;;;;-148.33;100.00;56587.81;5049358;28;20354;-59
2022/04/04 01:17:12;;;;;;;9.90;7.63;;;;;;;-148.33;100.00;56587.81;5049171;28;20047;-57
2022/04/04 01:19:37;;;;;;;7.73;6.87;;;;;;;-148.33;100.00;56587.81;5048225;28;20025;-58
2022/04/04 01:22:07;;;;;;;11.00;7.10;;;;;;;-148.33;100.00;56587.81;5049126;28;20408;-58
2022/04/04 01:24:33;;;;;;;8.20;7.23;;;;;;;-148.33;100.00;56587.81;5049158;28;20036;-59
2022/04/04 01:26:58;;;;;;;8.67;6.87;;;;;;;-148.33;100.00;56587.81;5067332;28;20032;-60
2022/04/04 01:29:24;;;;;;;8.97;7.20;;;;;;;-148.33;100.00;56587.81;5050662;28;20029;-59
2022/04/04 01:31:50;;;;;;;7.50;6.80;;;;;;;-148.33;100.00;56587.81;5049130;28;20076;-58
2022/04/04 01:34:18;;;;;;;11.13;7.23;;;;;;;-148.33;100.00;56587.81;5048961;28;20525;-57
2022/04/04 01:36:44;;;;;;;7.43;6.57;;;;;;;-148.33;100.00;56587.81;5031413;28;20388;-59
2022/04/04 01:39:10;;;;;;;7.73;7.00;;;;;;;-148.33;100.00;56587.81;5048893;28;20063;-59
2022/04/04 01:41:35;;;;;;;8.70;7.03;;;;;;;-148.33;100.00;56587.81;5048936;28;20287;-59
2022/04/04 01:44:01;;;;;;;7.53;6.57;;;;;;;-148.33;100.00;56587.81;5049156;28;20385;-58
2022/04/04 01:46:29;;;;;;;8.37;7.47;;;;;;;-148.33;100.00;56587.81;5048287;28;20036;-57
2022/04/04 01:48:56;;;;;;;7.90;6.73;;;;;;;-148.33;100.00;56587.81;5048663;28;20534;-58
2022/04/04 01:51:22;;;;;;;7.60;6.57;;;;;;;-148.33;100.00;56587.81;5048616;28;20056;-60
2022/04/04 01:53:47;;;;;;;7.07;6.37;;;;;;;-148.33;100.00;56587.81;5048036;28;20128;-58
2022/04/04 01:56:13;;;;;;;8.40;6.53;;;;;;;-148.33;100.00;56587.81;5048842;28;20112;-60
2022/04/04 01:58:39;;;;;;;9.03;7.83;;;;;;;-148.33;100.00;56587.81;5048873;28;20087;-59
2022/04/04 02:01:24;;;;;;;7.97;7.00;;;;;;;-148.33;100.00;56587.81;5049252;28;20048;-59
2022/04/04 02:03:52;;;;;;;7.70;6.90;;;;;;;-148.33;100.00;56587.81;5048231;28;20098;-58
2022/04/04 02:06:20;;;;;;;7.03;6.30;;;;;;;-148.33;100.00;56587.81;5048402;28;20021;-58
2022/04/04 02:08:46;;;;;;;6.80;5.80;;;;;;;-148.33;100.00;56587.81;5048405;28;20032;-59
2022/04/04 02:11:13;;;;;;;7.40;6.33;;;;;;;-148.33;100.00;56587.81;5049261;28;20551;-57
2022/04/04 02:13:39;;;;;;;7.33;6.63;;;;;;;-148.33;100.00;56587.81;5051067;28;20039;-59
2022/04/04 02:16:05;;;;;;;6.83;5.90;;;;;;;-148.33;100.00;56587.81;5033999;28;20036;-57
2022/04/04 02:18:31;;;;;;;10.83;7.03;;;;;;;-148.33;100.00;56587.81;5052458;28;20431;-58
2022/04/04 02:20:58;;;;;;;7.43;6.33;;;;;;;-148.33;100.00;56587.81;5051729;28;20036;-58
2022/04/04 02:23:23;;;;;;;7.33;6.50;;;;;;;-148.33;100.00;56587.81;5051637;28;20021;-60
2022/04/04 02:25:50;;;;;;;7.30;6.53;;;;;;;-148.33;100.00;56587.81;5034452;28;20083;-58
2022/04/04 02:28:16;;;;;;;7.30;6.20;;;;;;;-148.33;100.00;56587.81;5051738;28;20489;-56
2022/04/04 02:30:44;;;;;;;7.50;6.13;;;;;;;-148.33;100.00;56587.81;5060899;28;20107;-58
2022/04/04 02:33:10;;;;;;;7.30;5.87;;;;;;;-148.33;100.00;56587.81;5071096;28;20029;-57
2022/04/04 02:35:35;;;;;;;6.60;5.93;;;;;;;-148.33;100.00;56587.81;5070619;28;20033;-55
2022/04/04 02:38:02;;;;;;;8.07;5.97;;;;;;;-148.33;100.00;56587.81;5071687;28;20454;-58
2022/04/04 02:40:28;;;;;;;7.33;5.43;;;;;;;-148.33;100.00;56587.81;5071528;28;20469;-59
2022/04/04 02:42:54;;;;;;;7.87;6.00;;;;;;;-148.33;100.00;56587.81;5070884;28;20028;-59
2022/04/04 02:45:20;;;;;;;6.43;5.67;;;;;;;-148.33;100.00;56587.81;5069533;28;20043;-59
2022/04/04 02:47:45;;;;;;;6.17;5.57;;;;;;;-148.33;100.00;56587.81;5071277;28;20080;-59
2022/04/04 02:50:11;;;;;;;7.40;6.00;;;;;;;-148.33;100.00;56587.81;5070691;28;20028;-59
2022/04/04 02:52:37;;;;;;;6.83;5.80;;;;;;;-148.33;100.00;56587.81;5070749;28;20028;-59
2022/04/04 02:56:28;;;;;;;7.27;6.07;;;;;;;-148.33;100.00;56587.81;5070823;28;20029;-58
2022/04/04 02:57:49;;;;;;;8.47;5.67;;;;;;;-148.33;100.00;56587.81;5050905;28;20148;-57
2022/04/04 03:00:17;;;;;;;7.50;5.77;;;;;;;-148.33;100.00;56587.81;5051788;28;20772;-59
2022/04/04 03:02:43;;;;;;;7.70;6.23;;;;;;;-148.33;100.00;56587.81;5051126;28;20057;-58
2022/04/04 03:05:08;;;;;;;6.77;6.17;;;;;;;-148.33;100.00;56587.81;5051530;28;20086;-57
2022/04/04 03:07:33;;;;;;;8.27;6.03;;;;;;;-148.33;100.00;56587.81;5050845;28;20469;-59
2022/04/04 03:09:59;;;;;;;7.53;6.00;;;;;;;-148.33;100.00;56587.81;5050826;28;20094;-58
2022/04/04 03:12:24;;;;;;;6.77;5.87;;;;;;;-148.33;100.00;56587.81;5051255;28;20032;-58
2022/04/04 03:14:50;;;;;;;6.60;5.47;;;;;;;-148.33;100.00;56587.81;5051260;28;20029;-58
2022/04/04 03:17:15;;;;;;;7.77;6.03;;;;;;;-148.33;100.00;56587.81;5051263;28;20037;-56
2022/04/04 03:19:40;;;;;;;7.83;5.60;;;;;;;-148.33;100.00;56587.81;5050557;28;20029;-59
2022/04/04 03:22:07;;;;;;;6.60;6.00;;;;;;;-148.33;100.00;56587.81;5051248;28;20033;-59
2022/04/04 03:24:32;;;;;;;10.10;6.10;;;;;;;-148.33;100.00;56587.81;5049986;28;20040;-58
2022/04/04 03:26:57;;;;;;;6.23;5.30;;;;;;;-148.33;100.00;56587.81;5050260;28;20098;-59
2022/04/04 03:29:22;;;;;;;6.07;5.40;;;;;;;-148.33;100.00;56587.81;5050660;28;20107;-57
2022/04/04 03:31:48;;;;;;;7.17;5.80;;;;;;;-148.33;100.00;56587.81;5050772;28;20025;-59
2022/04/04 03:34:13;;;;;;;6.10;5.50;;;;;;;-148.33;100.00;56587.81;5051204;28;20034;-58
2022/04/04 03:36:39;;;;;;;9.50;5.83;;;;;;;-148.33;100.00;56587.81;5050384;28;20037;-59
2022/04/04 03:39:04;;;;;;;6.93;5.87;;;;;;;-148.33;100.00;56587.81;5050294;28;20037;-58
2022/04/04 03:41:29;;;;;;;6.90;5.87;;;;;;;-148.33;100.00;56587.81;5050601;28;20036;-59
2022/04/04 03:43:55;;;;;;;7.87;5.80;;;;;;;-148.33;100.00;56587.81;5050613;28;20533;-59
2022/04/04 03:46:20;;;;;;;6.87;5.97;;;;;;;-148.33;100.00;56587.81;5050217;28;20051;-58
2022/04/04 03:48:45;;;;;;;8.17;6.10;;;;;;;-148.33;100.00;56587.81;5066677;28;20036;-57
2022/04/04 03:51:12;;;;;;;7.20;5.73;;;;;;;-148.33;100.00;56587.81;5069569;28;20036;-58
2022/04/04 03:53:38;;;;;;;6.97;5.60;;;;;;;-148.33;100.00;56587.81;5069465;28;20469;-59
2022/04/04 03:56:03;;;;;;;8.80;5.90;;;;;;;-148.33;100.00;56587.81;5069581;28;20104;-59
2022/04/04 03:58:29;;;;;;;9.67;6.03;;;;;;;-148.33;100.00;56587.81;5069321;28;20044;-58
2022/04/04 04:00:54;;;;;;;6.77;5.50;;;;;;;-148.33;100.00;56587.81;5069497;28;20069;-58
2022/04/04 04:03:19;;;;;;;7.53;5.87;;;;;;;-148.33;100.00;56587.81;5068379;28;20412;-58
2022/04/04 04:05:45;;;;;;;6.63;5.60;;;;;;;-148.33;100.00;56587.81;5069178;28;20082;-59
2022/04/04 04:08:10;;;;;;;8.77;6.53;;;;;;;-148.33;100.00;56587.81;5069283;28;20024;-58
2022/04/04 04:10:36;;;;;;;8.87;6.23;;;;;;;-148.33;100.00;56587.81;5069384;28;20423;-56
2022/04/04 04:13:05;;;;;;;9.90;6.80;;;;;;;-148.33;100.00;56587.81;5056133;28;20056;-59
2022/04/04 04:15:30;;;;;;;9.63;6.50;;;;;;;-148.33;100.00;56587.81;5068998;28;20051;-59
2022/04/04 04:17:56;;;;;;;7.90;6.00;;;;;;;-148.33;100.00;56587.81;5068993;28;20064;-58
2022/04/04 04:20:29;;;;;;;11.07;6.40;;;;;;;-148.33;100.00;56587.81;5068904;28;20028;-58
2022/04/04 04:23:04;;;;;;;9.27;6.43;;;;;;;-148.33;100.00;56587.81;5068746;28;20373;-57
2022/04/04 04:25:31;;;;;;;7.57;6.47;;;;;;;-148.33;100.00;56587.81;5069001;28;20082;-58
2022/04/04 04:27:59;;;;;;;8.70;7.03;;;;;;;-148.33;100.00;56587.81;5068660;28;20108;-58
2022/04/04 04:30:25;;;;;;;8.93;6.33;;;;;;;-148.33;100.00;56587.81;5068818;28;20112;-58
2022/04/04 04:32:53;;;;;;;7.67;6.67;;;;;;;-148.33;100.00;56587.81;5068399;28;20103;-58
2022/04/04 04:35:19;;;;;;;8.27;6.60;;;;;;;-148.33;100.00;56587.81;5068483;28;20025;-59
2022/04/04 04:37:45;;;;;;;10.50;6.60;;;;;;;-148.33;100.00;56587.81;5068906;28;20473;-60
2022/04/04 04:40:11;;;;;;;12.83;6.50;;;;;;;-148.33;100.00;56587.81;5069061;28;20054;-59
2022/04/04 04:42:37;;;;;;;9.07;7.30;;;;;;;-148.33;100.00;56587.81;5049629;28;20032;-59
2022/04/04 04:45:04;;;;;;;10.03;6.57;;;;;;;-148.33;100.00;56587.81;5068511;28;20387;-59
2022/04/04 04:47:31;;;;;;;11.10;6.37;;;;;;;-148.33;100.00;56587.81;5068240;28;20028;-59
2022/04/04 04:49:57;;;;;;;10.43;7.27;;;;;;;-148.33;100.00;56587.81;5068083;28;20461;-58
2022/04/04 04:52:23;;;;;;;7.70;6.97;;;;;;;-148.33;100.00;56587.81;5068471;28;20032;-59
2022/04/04 04:54:48;;;;;;;12.10;7.40;;;;;;;-148.33;100.00;56587.81;5068401;28;20090;-58
2022/04/04 04:57:13;;;;;;;12.80;7.23;;;;;;;-148.33;100.00;56587.81;5068207;28;20060;-59
2022/04/04 04:59:39;;;;;;;9.30;7.17;;;;;;;-148.33;100.00;56587.81;5067358;28;20037;-59
2022/04/04 05:02:04;;;;;;;8.40;7.07;;;;;;;-148.33;100.00;56587.81;5066296;28;20048;-57
2022/04/04 05:04:29;;;;;;;10.93;7.30;;;;;;;-148.33;100.00;56587.81;5066972;28;20024;-59
2022/04/04 05:06:55;;;;;;;8.20;6.97;;;;;;;-148.33;100.00;56587.81;5066745;28;20063;-59
2022/04/04 05:09:20;;;;;;;10.67;7.33;;;;;;;-148.33;100.00;56587.81;5066610;28;20059;-57
2022/04/04 05:11:46;;;;;;;9.70;7.57;;;;;;;-148.33;100.00;56587.81;5067064;28;20082;-59
2022/04/04 05:14:15;;;;;;;8.53;7.57;;;;;;;-148.33;100.00;56587.81;5067197;28;20251;-59
2022/04/04 05:16:44;;;;;;;8.37;7.27;;;;;;;-148.33;100.00;56587.81;5068247;28;20469;-57
2022/04/04 05:19:17;;;;;;;11.70;7.73;;;;;;;-148.33;100.00;56587.81;5065181;28;20096;-58
2022/04/04 05:21:42;;;;;;;11.07;7.37;;;;;;;-148.33;100.00;56587.81;5065648;28;20036;-59
2022/04/04 05:24:08;;;;;;;11.33;8.57;;;;;;;-148.33;100.00;56587.81;5068159;28;20468;-58
2022/04/04 05:26:34;;;;;;;11.83;7.83;;;;;;;-148.33;100.00;56587.81;5065888;28;20016;-59
2022/04/04 05:29:00;;;;;;;11.33;8.37;;;;;;;-148.33;100.00;56587.81;5067902;28;20060;-59
2022/04/04 05:31:26;;;;;;;8.73;7.27;;;;;;;-148.33;100.00;56587.81;5067782;28;20028;-58
2022/04/04 05:33:51;;;;;;;11.27;8.17;;;;;;;-148.33;100.00;56587.81;5067655;28;20033;-58
2022/04/04 05:36:17;;;;;;;13.03;8.53;;;;;;;-148.33;100.00;56587.81;5068339;28;20020;-58
2022/04/04 05:38:42;;;;;;;9.73;8.63;;;;;;;-148.33;100.00;56587.81;5050050;28;20032;-60
2022/04/04 05:41:08;;;;;;;17.20;9.50;;;;;;;-148.33;100.00;56587.81;5068481;28;20090;-60
2022/04/04 05:43:33;;;;;;;11.70;7.70;;;;;;;-148.33;100.00;56587.81;5068387;28;20027;-59
2022/04/04 05:45:58;;;;;;;8.63;7.73;;;;;;;-148.33;100.00;56587.81;5049940;28;20021;-58
2022/04/04 05:48:27;;;;;;;15.37;8.90;;;;;;;-148.33;100.00;56587.81;5056223;28;20025;-59
2022/04/04 05:50:53;;;;;;;14.63;8.73;;;;;;;-148.33;100.00;56587.81;5054522;28;20311;-58
2022/04/04 05:53:19;;;;;;;11.53;8.20;;;;;;;-148.33;100.00;56587.81;5052311;28;20232;-59
2022/04/04 05:55:44;;;;;;;12.77;9.50;;;;;;;-148.33;100.00;56587.81;5054773;28;20496;-58
2022/04/04 05:58:10;;;;;;;15.13;8.93;;;;;;;-148.33;100.00;56587.81;5052845;28;20017;-58
2022/04/04 06:00:35;;;;;;;12.97;8.57;;;;;;;-148.33;100.00;56587.81;5051195;28;20183;-58
2022/04/04 06:03:01;;;;;;;12.50;9.13;;;;;;;-148.33;100.00;56587.81;5052730;28;20045;-58
2022/04/04 06:05:26;;;;;;;10.40;8.60;;;;;;;-148.33;100.00;56587.81;5052541;28;20416;-59
2022/04/04 06:07:52;;;;;;;12.73;8.87;;;;;;;-148.33;100.00;56587.81;5067465;28;20032;-58
2022/04/04 06:10:18;;;;;;;11.37;9.70;;;;;;;-148.33;100.00;56587.81;5051777;28;20021;-59
2022/04/04 06:12:43;;;;;;;11.83;7.77;;;;;;;-148.33;100.00;56587.81;5051899;28;20173;-58
2022/04/04 06:15:10;;;;;;;12.27;8.13;;;;;;;-148.33;100.00;56587.81;5054591;28;20523;-58
2022/04/04 06:17:36;;;;;;;10.37;8.43;;;;;;;-148.33;100.00;56587.81;5062610;28;20934;-56
2022/04/04 06:20:03;;;;;;;10.43;8.80;;;;;;;-148.33;100.00;56587.81;5056350;28;20053;-59
2022/04/04 06:22:34;;;;;;;10.43;8.93;;;;;;;-148.33;100.00;56587.81;5051913;28;20057;-59
2022/04/04 06:24:59;;;;;;;11.73;8.27;;;;;;;-148.33;100.00;56587.81;5056436;28;20078;-58
2022/04/04 06:27:26;;;;;;;12.40;9.37;;;;;;;-148.33;100.00;56587.81;5051883;28;20020;-58
2022/04/04 06:29:51;;;;;;;9.80;8.80;;;;;;;-148.33;100.00;56587.81;5051610;28;20028;-58
2022/04/04 06:32:16;;;;;;;24.43;9.37;;;;;;;-148.33;100.00;56587.81;5050572;28;20025;-59
2022/04/04 06:34:41;;;;;;;9.47;8.47;;;;;;;-148.33;100.00;56587.81;5051856;28;20017;-59
2022/04/04 06:37:09;;;;;;;13.90;9.13;;;;;;;-148.33;100.00;56587.81;5051675;28;20025;-59
2022/04/04 06:39:35;;;;;;;12.20;9.00;;;;;;;-148.33;100.00;56587.81;5054056;28;20067;-57
2022/04/04 06:42:01;;;;;;;9.27;8.37;;;;;;;-148.33;100.00;56587.81;5059322;28;20473;-59
2022/04/04 06:44:26;;;;;;;10.63;9.07;;;;;;;-148.33;100.00;56587.81;5061947;28;20025;-58
2022/04/04 06:46:52;;;;;;;11.77;9.10;;;;;;;-148.33;100.00;56587.81;5061398;28;20550;-58
2022/04/04 06:49:17;;;;;;;10.53;8.63;;;;;;;-148.33;100.00;56587.81;5061632;28;20021;-57
2022/04/04 06:51:42;;;;;;;10.70;8.60;;;;;;;-148.33;100.00;56587.81;5059091;28;20102;-59
2022/04/04 06:54:08;;;;;;;11.50;8.90;;;;;;;-148.33;100.00;56587.81;5062661;28;20021;-59
2022/04/04 06:56:34;;;;;;;10.33;8.17;;;;;;;-148.33;100.00;56587.81;5061880;28;20116;-57
2022/04/04 06:59:01;;;;;;;9.73;8.40;;;;;;;-148.33;100.00;56587.81;5059921;28;20107;-59
2022/04/04 07:01:26;;;;;;;10.77;8.50;;;;;;;-148.33;100.00;56587.81;5060162;28;20056;-57
2022/04/04 07:03:51;;;;;;;9.63;8.43;;;;;;;-148.33;100.00;56587.81;5060362;28;20032;-59
2022/04/04 07:06:16;;;;;;;11.50;8.37;;;;;;;-148.33;100.00;56587.81;5053408;28;20536;-59
2022/04/04 07:08:43;;;;;;;10.70;8.97;;;;;;;-148.33;100.00;56587.81;5063347;28;20032;-56
2022/04/04 07:11:10;;;;;;;10.50;7.70;;;;;;;-148.33;100.00;56587.81;5052676;28;20400;-59
2022/04/04 07:13:37;;;;;;;11.90;7.63;;;;;;;-148.33;100.00;56587.81;5060535;28;20040;-57
2022/04/04 07:16:03;;;;;;;10.33;7.47;;;;;;;-148.33;100.00;56587.81;5055023;28;20505;-59
2022/04/04 07:18:28;;;;;;;9.60;8.33;;;;;;;-148.33;100.00;56587.81;5050529;28;20110;-59
2022/04/04 07:20:54;;;;;;;10.97;7.47;;;;;;;-148.33;100.00;56587.81;5050403;28;20571;-59
2022/04/04 07:23:19;;;;;;;11.60;8.27;;;;;;;-148.33;100.00;56587.81;5055194;28;20020;-60
2022/04/04 07:25:45;;;;;;;12.53;7.77;;;;;;;-148.33;100.00;56587.81;5059398;28;20060;-59
2022/04/04 07:28:11;;;;;;;9.27;7.60;;;;;;;-148.33;100.00;56587.81;5058243;28;20021;-59
2022/04/04 07:30:36;;;;;;;9.57;7.53;;;;;;;-148.33;100.00;56587.81;5058384;28;20114;-58
2022/04/04 07:33:04;;;;;;;10.70;7.10;;;;;;;-148.33;100.00;56587.81;5060336;28;20430;-59
2022/04/04 07:35:29;;;;;;;8.80;7.33;;;;;;;-148.33;100.00;56587.81;5060784;28;20027;-59
2022/04/04 07:37:55;;;;;;;8.37;6.93;;;;;;;-148.33;100.00;56587.81;5052354;28;20139;-58
2022/04/04 07:40:21;;;;;;;8.20;7.37;;;;;;;-148.33;100.00;56587.81;5058498;28;20580;-59
2022/04/04 07:42:47;;;;;;;8.37;7.57;;;;;;;-148.33;100.00;56587.81;5056914;28;20035;-59
2022/04/04 07:45:14;;;;;;;10.07;7.03;;;;;;;-148.33;100.00;56587.81;5065313;28;20044;-59
2022/04/04 07:47:40;;;;;;;9.73;7.07;;;;;;;-148.33;100.00;56587.81;5068444;28;20021;-57
2022/04/04 07:50:08;;;;;;;9.60;7.30;;;;;;;-148.33;100.00;56587.81;5068000;28;20400;-59
2022/04/04 07:52:33;;;;;;;8.23;7.47;;;;;;;-148.33;100.00;56587.81;5049682;28;20025;-58
2022/04/04 07:54:59;;;;;;;8.77;7.23;;;;;;;-148.33;100.00;56587.81;5051902;28;20514;-60
2022/04/04 07:57:24;;;;;;;10.10;7.30;;;;;;;-148.33;100.00;56587.81;5049132;28;20064;-58
2022/04/04 07:59:52;;;;;;;8.23;7.43;;;;;;;-148.33;100.00;56587.81;5049747;28;20078;-58
2022/04/04 08:02:18;;;;;;;9.97;7.40;;;;;;;-148.33;100.00;56587.81;5048892;28;20041;-58
2022/04/04 08:04:43;;;;;;;9.63;8.10;;;;;;;-148.33;100.00;56587.81;5050208;28;20029;-59
2022/04/04 08:07:09;;;;;;;11.83;7.63;;;;;;;-148.33;100.00;56587.81;5049850;28;20025;-59
2022/04/04 08:09:34;;;;;;;9.67;8.53;;;;;;;-148.33;100.00;56587.81;5050142;28;20632;-57
2022/04/04 08:11:59;;;;;;;9.60;7.43;;;;;;;-148.33;100.00;56587.81;5050043;28;20025;-59
2022/04/04 08:14:25;;;;;;;10.03;7.33;;;;;;;-148.33;100.00;56587.81;5050237;28;20017;-58
2022/04/04 08:16:50;;;;;;;8.87;7.37;;;;;;;-148.33;100.00;56587.81;5050353;28;20024;-58
2022/04/04 08:19:17;;;;;;;8.80;7.90;;;;;;;-148.33;100.00;56587.81;5049970;28;20039;-58
2022/04/04 08:21:44;;;;;;;10.07;7.73;;;;;;;-148.33;100.00;56587.81;5049666;28;20033;-58
2022/04/04 08:24:09;;;;;;;8.17;7.23;;;;;;;-148.33;100.00;56587.81;5049420;28;20047;-59
2022/04/04 08:26:35;;;;;;;8.73;7.57;;;;;;;-148.33;100.00;56587.81;5050067;28;20379;-59
2022/04/04 08:29:01;;;;;;;8.40;7.07;;;;;;;-148.33;100.00;56587.81;5050252;28;20021;-59
2022/04/04 08:31:26;;;;;;;9.17;7.17;;;;;;;-148.33;100.00;56587.81;5050278;28;20021;-57
2022/04/04 08:33:52;;;;;;;12.73;7.47;;;;;;;-148.33;100.00;56587.81;5049532;28;20082;-59
2022/04/04 08:36:17;;;;;;;10.20;6.57;;;;;;;-148.33;100.00;56587.81;5049438;28;20040;-57
2022/04/04 08:38:42;;;;;;;8.50;7.30;;;;;;;-148.33;100.00;56587.81;5049344;28;20414;-59
2022/04/04 08:41:10;;;;;;;10.53;7.00;;;;;;;-148.33;100.00;56587.81;5049317;28;20021;-59
2022/04/04 08:43:38;;;;;;;9.17;6.07;;;;;;;-148.33;100.00;56587.81;5057060;28;20788;-58
2022/04/04 08:46:07;;;;;;;10.63;6.27;;;;;;;-148.33;100.00;56587.81;5068404;28;20044;-60
2022/04/04 08:48:35;;;;;;;9.63;6.10;;;;;;;-148.33;100.00;56587.81;5068406;28;20039;-59
2022/04/04 08:51:00;;;;;;;6.70;6.07;;;;;;;-148.33;100.00;56587.81;5069128;28;20032;-59
2022/04/04 08:53:26;;;;;;;14.13;6.20;;;;;;;-148.33;100.00;56587.81;5068582;28;20115;-59
2022/04/04 08:55:52;;;;;;;14.27;6.77;;;;;;;-148.33;100.00;56587.81;5050699;28;20197;-60
2022/04/04 08:58:17;;;;;;;12.20;6.40;;;;;;;-148.33;100.00;56587.81;5067887;28;20059;-59
2022/04/04 09:00:42;;;;;;;11.83;6.20;;;;;;;-148.33;100.00;56587.81;5068479;28;20028;-57
2022/04/04 09:03:09;;;;;;;8.90;6.50;;;;;;;-148.33;100.00;56587.81;5068311;28;20052;-56
2022/04/04 09:05:51;;;;;;;11.17;6.30;;;;;;;-148.33;100.00;56587.81;5068342;28;20027;-59
2022/04/04 09:08:18;;;;;;;9.60;6.73;;;;;;;-148.33;100.00;56587.81;5068421;28;20361;-59
2022/04/04 09:10:44;;;;;;;11.37;6.90;;;;;;;-148.33;100.00;56587.81;5068629;28;20035;-58
2022/04/04 09:13:15;;;;;;;19.40;7.85;;;;;;;-148.33;100.00;56587.81;5068301;28;20028;-59
2022/04/04 09:15:57;;;;;;;17.85;7.40;;;;;;;-148.33;100.00;56587.81;5068347;28;20590;-59
2022/04/04 09:18:37;;;;;;;12.40;7.00;;;;;;;-148.33;100.00;56587.81;5068376;28;20419;-57
2022/04/04 09:21:05;;;;;;;12.67;7.13;;;;;;;-148.33;100.00;56587.81;5068447;28;20078;-59
2022/04/04 09:23:51;;;;;;;15.18;7.07;;;;;;;-148.33;100.00;56587.81;5067545;28;20013;-59
2022/04/04 09:26:30;;;;;;;12.68;7.03;;;;;;;-148.33;100.00;56587.81;5058818;28;20025;-59
2022/04/04 09:28:56;;;;;;;18.55;7.50;;;;;;;-148.33;100.00;56587.81;5049231;28;20469;-57
2022/04/04 09:31:23;;;;;;;12.30;6.53;;;;;;;-148.33;100.00;56587.81;5048768;28;20025;-59
2022/04/04 09:33:49;;;;;;;11.38;7.00;;;;;;;-148.33;100.00;56587.81;5049122;28;20056;-57
2022/04/04 09:36:14;;;;;;;16.13;8.18;;;;;;;-148.33;100.00;56587.81;5059435;28;20426;-59
2022/04/04 09:38:43;;;;;;;13.47;7.27;;;;;;;-148.33;100.00;56587.81;5068253;28;20052;-59
2022/04/04 09:41:15;;;;;;;11.93;7.53;;;;;;;-148.33;100.00;56587.81;5068194;28;20382;-57
2022/04/04 09:43:50;;;;;;;;;;;;;;;-148.33;100.00;56587.81;5068255;28;20027;-59
2022/04/04 09:46:15;;;;;;;12.10;7.70;;;;;;;-148.33;100.00;56587.81;5068294;28;19956;-59
2022/04/04 09:49:00;;;;;;;13.00;8.07;;;;;;;-148.33;100.00;56587.81;5068230;28;20428;-58
2022/04/04 09:51:38;;;;;;;9.80;8.00;;;;;;;-148.33;100.00;56587.81;5067832;28;20020;-59
2022/04/04 09:54:06;;;;;;;10.70;7.47;;;;;;;-148.33;100.00;56587.81;5068183;28;20064;-59
2022/04/04 09:56:32;;;;;;;12.10;7.60;;;;;;;-148.33;100.00;56587.81;5067751;28;20025;-59
2022/04/04 09:59:02;;;;;;;11.70;7.97;;;;;;;-148.33;100.00;56587.81;5067430;28;20377;-59
2022/04/04 10:01:30;;;;;;;12.50;8.18;;;;;;;-148.33;100.00;56587.81;5059859;28;20041;-59
2022/04/04 10:03:56;;;;;;;13.10;8.60;;;;;;;-148.33;100.00;56587.81;5053285;28;20029;-59
2022/04/04 10:06:26;;;;;;;11.73;8.83;;;;;;;-148.33;100.00;56587.81;5050384;28;20017;-59
2022/04/04 10:08:57;;;;;;;9.03;8.10;;;;;;;-148.33;100.00;56587.81;5052309;28;20032;-58
2022/04/04 10:11:23;;;;;;;;;;;;;;;-148.33;100.00;56587.81;5056648;28;20540;-59
2022/04/04 10:13:52;;;;;;;11.13;8.90;;;;;;;-148.33;100.00;56587.81;5055156;28;19987;-60
2022/04/04 10:16:18;;;;;;;13.03;9.50;;;;;;;-148.33;100.00;56587.81;5051811;28;20029;-57
2022/04/04 10:18:44;;;;;;;10.30;9.30;;;;;;;-148.33;100.00;56587.81;5056600;28;20025;-60
2022/04/04 10:21:11;;;;;;;13.57;9.33;;;;;;;-148.33;100.00;56587.81;5056691;28;20435;-59
2022/04/04 10:23:39;;;;;;;14.07;9.97;;;;;;;-148.33;100.00;56587.81;5058817;28;20210;-59
2022/04/04 10:26:07;;;;;;;10.43;9.17;;;;;;;-148.33;100.00;56587.81;5056445;28;20013;-60
2022/04/04 10:28:35;;;;;;;13.43;10.93;;;;;;;-148.33;100.00;56587.81;5059249;28;20024;-59
2022/04/04 10:31:11;;;;;;;10.90;9.80;;;;;;;-148.33;100.00;56587.81;5056318;28;20117;-60
2022/04/04 10:33:37;;;;;;;10.83;9.67;;;;;;;-148.33;100.00;56587.81;5057783;28;20086;-58
2022/04/04 10:36:06;;;;;;;12.30;11.00;;;;;;;-148.33;100.00;56587.81;5060070;28;20017;-59
2022/04/04 10:38:37;;;;;;;12.47;10.90;;;;;;;-148.33;100.00;56587.81;5062817;28;20391;-57
2022/04/04 10:41:07;;;;;;;12.65;11.27;;;;;;;-148.33;100.00;56587.81;5060387;28;20028;-58
2022/04/04 10:43:34;;;;;;;14.97;11.70;;;;;;;-148.33;100.00;56587.81;5059689;28;20048;-59
2022/04/04 10:46:02;;;;;;;12.90;11.37;;;;;;;-148.33;100.00;56587.81;5060012;28;20059;-58
2022/04/04 10:48:33;;;;;;;16.60;13.53;;;;;;;-148.33;100.00;56587.81;5062221;28;20016;-58
2022/04/04 10:51:18;;;;;;;12.40;10.82;;;;;;;-148.33;100.00;56587.81;5060445;28;20112;-58
2022/04/04 10:53:51;;;;;;;14.60;13.10;;;;;;;-148.33;100.00;56587.81;5064219;28;20425;-59
2022/04/04 10:56:22;;;;;;;14.60;13.10;;;;;;;-148.33;100.00;56587.81;5060378;28;20028;-56
2022/04/04 10:58:49;;;;;;;14.90;13.40;;;;;;;-148.33;100.00;56587.81;5061213;28;20021;-58
2022/04/04 11:01:17;;;;;;;15.37;12.37;;;;;;;-148.33;100.00;56587.81;5059019;28;20013;-58
2022/04/04 11:03:48;;;;;;;13.97;12.57;;;;;;;-148.33;100.00;56587.81;5063873;28;20020;-58
2022/04/04 11:09:18;;;;;;;15.40;13.80;;;;;;;-148.33;100.00;56587.81;5050860;28;20058;-58